sensor_id;sensor_type;location;lat;lon;timestamp;temperature;humidity
9861;DHT22;4969;52.304;4.968;2023-04-24T00:01:20;16.47;68.68
9861;DHT22;4969;52.304;4.968;2023-04-24T00:03:46;16.54;70.46
9861;DHT22;4969;52.304;4.968;2023-04-24T00:06:13;15.92;68.49
9861;DHT22;4969;52.304;4.968;2023-04-24T00:08:43;15.40;70.66
9861;DHT22;4969;52.304;4.968;2023-04-24T00:11:10;14.27;72.94
9861;DHT22;4969;52.304;4.968;2023-04-24T00:13:37;14.13;75.40
9861;DHT22;4969;52.304;4.968;2023-04-24T00:16:04;13.48;75.90
9861;DHT22;4969;52.304;4.968;2023-04-24T00:18:31;12.52;79.00
9861;DHT22;4969;52.304;4.968;2023-04-24T00:20:57;12.26;80.90
9861;DHT22;4969;52.304;4.968;2023-04-24T00:23:24;12.71;79.09
9861;DHT22;4969;52.304;4.968;2023-04-24T00:25:52;12.61;79.66
9861;DHT22;4969;52.304;4.968;2023-04-24T00:28:18;12.31;81.43
9861;DHT22;4969;52.304;4.968;2023-04-24T00:30:45;12.73;78.99
9861;DHT22;4969;52.304;4.968;2023-04-24T00:33:11;12.89;79.70
9861;DHT22;4969;52.304;4.968;2023-04-24T00:35:38;12.64;78.19
9861;DHT22;4969;52.304;4.968;2023-04-24T00:38:05;12.75;79.30
9861;DHT22;4969;52.304;4.968;2023-04-24T00:40:32;12.47;79.61
9861;DHT22;4969;52.304;4.968;2023-04-24T00:42:59;12.52;80.18
9861;DHT22;4969;52.304;4.968;2023-04-24T00:45:26;12.62;78.88
9861;DHT22;4969;52.304;4.968;2023-04-24T00:47:53;12.79;80.55
9861;DHT22;4969;52.304;4.968;2023-04-24T00:50:20;13.14;79.36
9861;DHT22;4969;52.304;4.968;2023-04-24T00:52:48;12.82;79.68
9861;DHT22;4969;52.304;4.968;2023-04-24T00:55:15;13.30;81.77
9861;DHT22;4969;52.304;4.968;2023-04-24T00:57:41;13.74;76.54
9861;DHT22;4969;52.304;4.968;2023-04-24T01:00:10;13.51;78.81
9861;DHT22;4969;52.304;4.968;2023-04-24T01:02:39;13.33;77.88
9861;DHT22;4969;52.304;4.968;2023-04-24T01:05:09;13.88;76.91
9861;DHT22;4969;52.304;4.968;2023-04-24T01:07:37;13.55;76.52
9861;DHT22;4969;52.304;4.968;2023-04-24T01:10:04;13.74;75.25
9861;DHT22;4969;52.304;4.968;2023-04-24T01:12:32;14.33;76.94
9861;DHT22;4969;52.304;4.968;2023-04-24T01:14:59;14.31;75.67
9861;DHT22;4969;52.304;4.968;2023-04-24T01:17:27;14.37;76.24
9861;DHT22;4969;52.304;4.968;2023-04-24T01:19:53;14.82;73.56
9861;DHT22;4969;52.304;4.968;2023-04-24T01:22:23;14.82;72.73
9861;DHT22;4969;52.304;4.968;2023-04-24T01:24:49;15.38;73.73
9861;DHT22;4969;52.304;4.968;2023-04-24T01:27:16;15.57;72.35
9861;DHT22;4969;52.304;4.968;2023-04-24T01:29:43;15.31;73.33
9861;DHT22;4969;52.304;4.968;2023-04-24T01:32:09;15.57;71.06
9861;DHT22;4969;52.304;4.968;2023-04-24T01:34:37;15.16;73.80
9861;DHT22;4969;52.304;4.968;2023-04-24T01:37:03;15.24;74.76
9861;DHT22;4969;52.304;4.968;2023-04-24T01:39:32;14.64;72.64
9861;DHT22;4969;52.304;4.968;2023-04-24T01:41:59;14.93;73.71
9861;DHT22;4969;52.304;4.968;2023-04-24T01:44:27;15.47;71.71
9861;DHT22;4969;52.304;4.968;2023-04-24T01:46:54;14.67;68.99
9861;DHT22;4969;52.304;4.968;2023-04-24T01:49:21;14.05;71.19
9861;DHT22;4969;52.304;4.968;2023-04-24T01:51:48;13.51;72.61
9861;DHT22;4969;52.304;4.968;2023-04-24T01:54:14;13.97;72.95
9861;DHT22;4969;52.304;4.968;2023-04-24T01:56:43;14.28;75.69
9861;DHT22;4969;52.304;4.968;2023-04-24T01:59:10;14.62;72.39
9861;DHT22;4969;52.304;4.968;2023-04-24T02:01:38;13.82;71.62
9861;DHT22;4969;52.304;4.968;2023-04-24T02:04:05;14.00;73.58
9861;DHT22;4969;52.304;4.968;2023-04-24T02:06:32;13.86;76.05
9861;DHT22;4969;52.304;4.968;2023-04-24T02:08:59;14.24;73.18
9861;DHT22;4969;52.304;4.968;2023-04-24T02:11:26;14.35;73.40
9861;DHT22;4969;52.304;4.968;2023-04-24T02:13:54;14.16;71.98
9861;DHT22;4969;52.304;4.968;2023-04-24T02:16:20;13.95;71.95
9861;DHT22;4969;52.304;4.968;2023-04-24T02:18:47;13.19;71.58
9861;DHT22;4969;52.304;4.968;2023-04-24T02:21:14;13.95;78.07
9861;DHT22;4969;52.304;4.968;2023-04-24T02:23:40;14.23;73.25
9861;DHT22;4969;52.304;4.968;2023-04-24T02:26:07;14.16;74.01
9861;DHT22;4969;52.304;4.968;2023-04-24T02:28:33;14.26;74.01
9861;DHT22;4969;52.304;4.968;2023-04-24T02:31:01;14.18;73.55
9861;DHT22;4969;52.304;4.968;2023-04-24T02:33:28;14.24;73.55
9861;DHT22;4969;52.304;4.968;2023-04-24T02:35:55;14.31;72.16
9861;DHT22;4969;52.304;4.968;2023-04-24T02:38:21;13.82;71.93
9861;DHT22;4969;52.304;4.968;2023-04-24T02:40:48;13.52;72.88
9861;DHT22;4969;52.304;4.968;2023-04-24T02:43:14;13.38;72.65
9861;DHT22;4969;52.304;4.968;2023-04-24T02:45:41;14.02;77.13
9861;DHT22;4969;52.304;4.968;2023-04-24T02:48:09;13.59;73.30
9861;DHT22;4969;52.304;4.968;2023-04-24T02:50:35;13.50;75.93
9861;DHT22;4969;52.304;4.968;2023-04-24T02:53:02;13.37;77.29
9861;DHT22;4969;52.304;4.968;2023-04-24T02:55:29;12.88;73.62
9861;DHT22;4969;52.304;4.968;2023-04-24T02:57:55;13.14;74.50
9861;DHT22;4969;52.304;4.968;2023-04-24T03:00:22;12.93;74.53
9861;DHT22;4969;52.304;4.968;2023-04-24T03:02:48;13.06;75.78
9861;DHT22;4969;52.304;4.968;2023-04-24T03:05:17;13.33;75.68
9861;DHT22;4969;52.304;4.968;2023-04-24T03:07:43;13.17;71.98
9861;DHT22;4969;52.304;4.968;2023-04-24T03:10:10;13.19;74.33
9861;DHT22;4969;52.304;4.968;2023-04-24T03:12:37;12.80;72.81
9861;DHT22;4969;52.304;4.968;2023-04-24T03:15:04;13.33;76.77
9861;DHT22;4969;52.304;4.968;2023-04-24T03:17:31;14.14;75.88
9861;DHT22;4969;52.304;4.968;2023-04-24T03:19:57;14.07;74.34
9861;DHT22;4969;52.304;4.968;2023-04-24T03:22:25;14.30;74.61
9861;DHT22;4969;52.304;4.968;2023-04-24T03:24:52;14.23;74.62
9861;DHT22;4969;52.304;4.968;2023-04-24T03:27:20;14.10;72.95
9861;DHT22;4969;52.304;4.968;2023-04-24T03:29:46;13.47;72.27
9861;DHT22;4969;52.304;4.968;2023-04-24T03:32:13;13.51;75.06
9861;DHT22;4969;52.304;4.968;2023-04-24T03:34:39;13.82;75.65
9861;DHT22;4969;52.304;4.968;2023-04-24T03:37:06;13.97;74.58
9861;DHT22;4969;52.304;4.968;2023-04-24T03:39:34;14.40;74.29
9861;DHT22;4969;52.304;4.968;2023-04-24T03:42:00;14.28;73.32
9861;DHT22;4969;52.304;4.968;2023-04-24T03:44:27;14.65;73.69
9861;DHT22;4969;52.304;4.968;2023-04-24T03:46:54;13.63;72.37
9861;DHT22;4969;52.304;4.968;2023-04-24T03:49:20;13.45;74.58
9861;DHT22;4969;52.304;4.968;2023-04-24T03:51:47;13.58;73.85
9861;DHT22;4969;52.304;4.968;2023-04-24T03:54:13;13.74;75.25
9861;DHT22;4969;52.304;4.968;2023-04-24T03:56:41;13.69;73.91
9861;DHT22;4969;52.304;4.968;2023-04-24T03:59:08;13.54;73.76
9861;DHT22;4969;52.304;4.968;2023-04-24T04:01:35;13.51;74.39
9861;DHT22;4969;52.304;4.968;2023-04-24T04:04:02;13.62;74.03
9861;DHT22;4969;52.304;4.968;2023-04-24T04:06:29;13.17;74.07
9861;DHT22;4969;52.304;4.968;2023-04-24T04:08:56;13.34;74.53
9861;DHT22;4969;52.304;4.968;2023-04-24T04:11:22;13.23;72.60
9861;DHT22;4969;52.304;4.968;2023-04-24T04:13:50;13.30;75.90
9861;DHT22;4969;52.304;4.968;2023-04-24T04:16:17;12.88;74.09
9861;DHT22;4969;52.304;4.968;2023-04-24T04:18:44;12.50;74.73
9861;DHT22;4969;52.304;4.968;2023-04-24T04:21:11;12.88;75.55
9861;DHT22;4969;52.304;4.968;2023-04-24T04:23:38;12.78;73.74
9861;DHT22;4969;52.304;4.968;2023-04-24T04:26:05;12.59;74.60
9861;DHT22;4969;52.304;4.968;2023-04-24T04:28:33;12.13;75.64
9861;DHT22;4969;52.304;4.968;2023-04-24T04:31:01;11.78;77.47
9861;DHT22;4969;52.304;4.968;2023-04-24T04:33:27;12.62;76.76
9861;DHT22;4969;52.304;4.968;2023-04-24T04:35:55;12.99;78.50
9861;DHT22;4969;52.304;4.968;2023-04-24T04:38:23;12.10;74.47
9861;DHT22;4969;52.304;4.968;2023-04-24T04:40:49;11.59;78.33
9861;DHT22;4969;52.304;4.968;2023-04-24T04:43:16;11.03;78.39
9861;DHT22;4969;52.304;4.968;2023-04-24T04:45:42;10.76;79.80
9861;DHT22;4969;52.304;4.968;2023-04-24T04:48:11;10.67;80.83
9861;DHT22;4969;52.304;4.968;2023-04-24T04:50:39;10.68;81.29
9861;DHT22;4969;52.304;4.968;2023-04-24T04:53:05;10.61;80.94
9861;DHT22;4969;52.304;4.968;2023-04-24T04:55:32;10.34;81.47
9861;DHT22;4969;52.304;4.968;2023-04-24T04:57:59;10.06;82.30
9861;DHT22;4969;52.304;4.968;2023-04-24T05:00:26;10.20;82.85
9861;DHT22;4969;52.304;4.968;2023-04-24T05:02:54;10.41;83.55
9861;DHT22;4969;52.304;4.968;2023-04-24T05:05:22;10.34;82.57
9861;DHT22;4969;52.304;4.968;2023-04-24T05:07:48;10.44;82.58
9861;DHT22;4969;52.304;4.968;2023-04-24T05:10:15;10.38;82.34
9861;DHT22;4969;52.304;4.968;2023-04-24T05:12:41;10.28;82.70
9861;DHT22;4969;52.304;4.968;2023-04-24T05:15:08;10.19;83.35
9861;DHT22;4969;52.304;4.968;2023-04-24T05:17:35;10.30;83.38
9861;DHT22;4969;52.304;4.968;2023-04-24T05:20:02;11.04;82.74
9861;DHT22;4969;52.304;4.968;2023-04-24T05:22:31;10.49;82.09
9861;DHT22;4969;52.304;4.968;2023-04-24T05:24:58;10.30;82.97
9861;DHT22;4969;52.304;4.968;2023-04-24T05:27:25;10.19;83.74
9861;DHT22;4969;52.304;4.968;2023-04-24T05:29:51;10.41;85.61
9861;DHT22;4969;52.304;4.968;2023-04-24T05:32:18;10.26;84.41
9861;DHT22;4969;52.304;4.968;2023-04-24T05:34:44;10.05;85.76
9861;DHT22;4969;52.304;4.968;2023-04-24T05:37:11;10.64;85.70
9861;DHT22;4969;52.304;4.968;2023-04-24T05:39:39;10.05;86.13
9861;DHT22;4969;52.304;4.968;2023-04-24T05:42:06;10.27;86.30
9861;DHT22;4969;52.304;4.968;2023-04-24T05:44:33;10.42;84.97
9861;DHT22;4969;52.304;4.968;2023-04-24T05:47:00;10.00;86.92
9861;DHT22;4969;52.304;4.968;2023-04-24T05:49:27;9.81;85.79
9861;DHT22;4969;52.304;4.968;2023-04-24T05:51:53;9.89;87.58
9861;DHT22;4969;52.304;4.968;2023-04-24T05:54:20;10.02;85.52
9861;DHT22;4969;52.304;4.968;2023-04-24T05:56:48;10.03;86.28
9861;DHT22;4969;52.304;4.968;2023-04-24T05:59:15;9.95;84.48
9861;DHT22;4969;52.304;4.968;2023-04-24T06:01:42;10.05;84.97
9861;DHT22;4969;52.304;4.968;2023-04-24T06:04:08;9.86;84.86
9861;DHT22;4969;52.304;4.968;2023-04-24T06:06:35;10.06;88.34
9861;DHT22;4969;52.304;4.968;2023-04-24T06:09:02;9.71;85.17
9861;DHT22;4969;52.304;4.968;2023-04-24T06:11:29;9.82;85.21
9861;DHT22;4969;52.304;4.968;2023-04-24T06:13:56;9.75;85.14
9861;DHT22;4969;52.304;4.968;2023-04-24T06:16:23;10.03;84.76
9861;DHT22;4969;52.304;4.968;2023-04-24T06:18:50;9.64;84.97
9861;DHT22;4969;52.304;4.968;2023-04-24T06:21:16;9.99;84.80
9861;DHT22;4969;52.304;4.968;2023-04-24T06:23:43;9.79;85.04
9861;DHT22;4969;52.304;4.968;2023-04-24T06:26:11;9.50;85.07
9861;DHT22;4969;52.304;4.968;2023-04-24T06:28:38;9.50;84.41
9861;DHT22;4969;52.304;4.968;2023-04-24T06:31:06;9.96;84.64
9861;DHT22;4969;52.304;4.968;2023-04-24T06:33:32;9.89;84.05
9861;DHT22;4969;52.304;4.968;2023-04-24T06:35:59;9.79;83.46
9861;DHT22;4969;52.304;4.968;2023-04-24T06:38:25;9.72;82.57
9861;DHT22;4969;52.304;4.968;2023-04-24T06:40:52;9.43;83.92
9861;DHT22;4969;52.304;4.968;2023-04-24T06:43:19;9.91;84.80
9861;DHT22;4969;52.304;4.968;2023-04-24T06:45:45;9.88;83.20
9861;DHT22;4969;52.304;4.968;2023-04-24T06:48:13;9.66;83.09
9861;DHT22;4969;52.304;4.968;2023-04-24T06:50:40;9.69;83.89
9861;DHT22;4969;52.304;4.968;2023-04-24T06:53:07;9.51;83.08
9861;DHT22;4969;52.304;4.968;2023-04-24T06:55:33;9.54;83.47
9861;DHT22;4969;52.304;4.968;2023-04-24T06:58:00;9.65;84.64
9861;DHT22;4969;52.304;4.968;2023-04-24T07:00:26;9.66;82.37
9861;DHT22;4969;52.304;4.968;2023-04-24T07:02:54;9.45;83.76
9861;DHT22;4969;52.304;4.968;2023-04-24T07:05:24;9.64;83.29
9861;DHT22;4969;52.304;4.968;2023-04-24T07:07:50;9.83;84.78
9861;DHT22;4969;52.304;4.968;2023-04-24T07:10:17;9.41;83.68
9861;DHT22;4969;52.304;4.968;2023-04-24T07:12:44;10.12;83.69
9861;DHT22;4969;52.304;4.968;2023-04-24T07:15:10;9.83;82.67
9861;DHT22;4969;52.304;4.968;2023-04-24T07:17:37;10.00;85.48
9861;DHT22;4969;52.304;4.968;2023-04-24T07:20:09;9.68;84.10
9861;DHT22;4969;52.304;4.968;2023-04-24T07:22:37;9.82;83.75
9861;DHT22;4969;52.304;4.968;2023-04-24T07:25:05;9.66;84.31
9861;DHT22;4969;52.304;4.968;2023-04-24T07:27:31;9.45;83.50
9861;DHT22;4969;52.304;4.968;2023-04-24T07:29:58;9.36;84.41
9861;DHT22;4969;52.304;4.968;2023-04-24T07:32:24;9.73;85.42
9861;DHT22;4969;52.304;4.968;2023-04-24T07:34:51;9.44;84.04
9861;DHT22;4969;52.304;4.968;2023-04-24T07:37:17;9.36;83.80
9861;DHT22;4969;52.304;4.968;2023-04-24T07:39:45;9.12;85.20
9861;DHT22;4969;52.304;4.968;2023-04-24T07:42:12;9.26;85.03
9861;DHT22;4969;52.304;4.968;2023-04-24T07:44:39;9.51;84.36
9861;DHT22;4969;52.304;4.968;2023-04-24T07:47:05;9.61;87.18
9861;DHT22;4969;52.304;4.968;2023-04-24T07:49:32;9.64;84.38
9861;DHT22;4969;52.304;4.968;2023-04-24T07:52:00;9.16;84.25
9861;DHT22;4969;52.304;4.968;2023-04-24T07:54:27;9.54;88.03
9861;DHT22;4969;52.304;4.968;2023-04-24T07:56:56;9.40;84.10
9861;DHT22;4969;52.304;4.968;2023-04-24T07:59:23;9.27;87.14
9861;DHT22;4969;52.304;4.968;2023-04-24T08:01:49;9.07;86.04
9861;DHT22;4969;52.304;4.968;2023-04-24T08:04:16;9.57;88.47
9861;DHT22;4969;52.304;4.968;2023-04-24T08:06:43;9.28;83.49
9861;DHT22;4969;52.304;4.968;2023-04-24T08:09:10;9.59;87.68
9861;DHT22;4969;52.304;4.968;2023-04-24T08:11:36;9.31;82.88
9861;DHT22;4969;52.304;4.968;2023-04-24T08:14:04;9.24;80.96
9861;DHT22;4969;52.304;4.968;2023-04-24T08:16:32;9.26;81.71
9861;DHT22;4969;52.304;4.968;2023-04-24T08:18:59;9.07;81.96
9861;DHT22;4969;52.304;4.968;2023-04-24T08:21:25;9.62;84.08
9861;DHT22;4969;52.304;4.968;2023-04-24T08:23:52;9.41;82.03
9861;DHT22;4969;52.304;4.968;2023-04-24T08:26:19;9.16;79.59
9861;DHT22;4969;52.304;4.968;2023-04-24T08:28:45;9.19;77.16
9861;DHT22;4969;52.304;4.968;2023-04-24T08:31:13;9.15;78.51
9861;DHT22;4969;52.304;4.968;2023-04-24T08:33:40;9.28;78.08
9861;DHT22;4969;52.304;4.968;2023-04-24T08:36:07;9.09;78.09
9861;DHT22;4969;52.304;4.968;2023-04-24T08:38:34;9.16;78.39
9861;DHT22;4969;52.304;4.968;2023-04-24T08:41:01;9.54;78.59
9861;DHT22;4969;52.304;4.968;2023-04-24T08:43:28;9.75;76.62
9861;DHT22;4969;52.304;4.968;2023-04-24T08:45:56;10.13;77.85
9861;DHT22;4969;52.304;4.968;2023-04-24T08:48:24;9.34;75.71
9861;DHT22;4969;52.304;4.968;2023-04-24T08:50:51;9.79;81.09
9861;DHT22;4969;52.304;4.968;2023-04-24T08:53:18;9.58;75.39
9861;DHT22;4969;52.304;4.968;2023-04-24T08:55:47;9.15;77.09
9861;DHT22;4969;52.304;4.968;2023-04-24T08:58:14;9.47;78.00
9861;DHT22;4969;52.304;4.968;2023-04-24T09:00:41;9.96;80.02
9861;DHT22;4969;52.304;4.968;2023-04-24T09:03:13;9.75;75.33
9861;DHT22;4969;52.304;4.968;2023-04-24T09:05:42;9.72;74.78
9861;DHT22;4969;52.304;4.968;2023-04-24T09:08:11;9.86;73.42
9861;DHT22;4969;52.304;4.968;2023-04-24T09:10:39;9.98;73.34
9861;DHT22;4969;52.304;4.968;2023-04-24T09:13:06;9.68;76.06
9861;DHT22;4969;52.304;4.968;2023-04-24T09:15:34;10.51;76.50
9861;DHT22;4969;52.304;4.968;2023-04-24T09:18:01;10.51;71.51
9861;DHT22;4969;52.304;4.968;2023-04-24T09:20:27;10.08;71.10
9861;DHT22;4969;52.304;4.968;2023-04-24T09:22:57;9.81;72.03
9861;DHT22;4969;52.304;4.968;2023-04-24T09:25:30;10.06;72.55
9861;DHT22;4969;52.304;4.968;2023-04-24T09:28:00;10.47;78.54
9861;DHT22;4969;52.304;4.968;2023-04-24T09:30:27;10.20;72.52
9861;DHT22;4969;52.304;4.968;2023-04-24T09:33:12;10.58;73.41
9861;DHT22;4969;52.304;4.968;2023-04-24T09:35:41;11.16;77.91
9861;DHT22;4969;52.304;4.968;2023-04-24T09:38:09;10.47;74.68
9861;DHT22;4969;52.304;4.968;2023-04-24T09:40:36;10.60;71.78
9861;DHT22;4969;52.304;4.968;2023-04-24T09:43:03;10.65;70.58
9861;DHT22;4969;52.304;4.968;2023-04-24T09:45:35;10.16;73.11
9861;DHT22;4969;52.304;4.968;2023-04-24T09:48:02;10.69;80.30
9861;DHT22;4969;52.304;4.968;2023-04-24T09:50:30;10.47;71.75
9861;DHT22;4969;52.304;4.968;2023-04-24T09:53:02;10.38;71.55
9861;DHT22;4969;52.304;4.968;2023-04-24T09:55:30;10.44;74.54
9861;DHT22;4969;52.304;4.968;2023-04-24T09:57:58;10.58;73.95
9861;DHT22;4969;52.304;4.968;2023-04-24T10:00:26;10.37;72.09
9861;DHT22;4969;52.304;4.968;2023-04-24T10:02:57;10.44;71.08
9861;DHT22;4969;52.304;4.968;2023-04-24T10:05:27;10.60;70.72
9861;DHT22;4969;52.304;4.968;2023-04-24T10:07:57;10.83;69.00
9861;DHT22;4969;52.304;4.968;2023-04-24T10:10:24;11.21;70.55
9861;DHT22;4969;52.304;4.968;2023-04-24T10:12:52;10.91;68.69
9861;DHT22;4969;52.304;4.968;2023-04-24T10:15:20;11.10;71.18
9861;DHT22;4969;52.304;4.968;2023-04-24T10:17:48;10.95;72.84
9861;DHT22;4969;52.304;4.968;2023-04-24T10:20:21;10.26;70.44
9861;DHT22;4969;52.304;4.968;2023-04-24T10:22:49;10.48;72.83
9861;DHT22;4969;52.304;4.968;2023-04-24T10:25:18;10.08;76.70
9861;DHT22;4969;52.304;4.968;2023-04-24T10:27:46;10.20;72.23
9861;DHT22;4969;52.304;4.968;2023-04-24T10:30:15;9.73;75.19
9861;DHT22;4969;52.304;4.968;2023-04-24T10:32:41;9.45;74.95
9861;DHT22;4969;52.304;4.968;2023-04-24T10:35:09;9.54;75.34
9861;DHT22;4969;52.304;4.968;2023-04-24T10:37:38;10.33;75.06
9861;DHT22;4969;52.304;4.968;2023-04-24T10:40:07;10.37;73.31
9861;DHT22;4969;52.304;4.968;2023-04-24T10:42:34;10.61;80.69
9861;DHT22;4969;52.304;4.968;2023-04-24T10:45:05;10.34;76.35
9861;DHT22;4969;52.304;4.968;2023-04-24T10:47:40;10.47;75.60
9861;DHT22;4969;52.304;4.968;2023-04-24T10:50:08;10.34;75.43
9861;DHT22;4969;52.304;4.968;2023-04-24T10:52:45;10.48;73.36
9861;DHT22;4969;52.304;4.968;2023-04-24T10:55:12;10.88;73.10
9861;DHT22;4969;52.304;4.968;2023-04-24T10:57:39;10.60;70.54
9861;DHT22;4969;52.304;4.968;2023-04-24T11:00:19;10.82;73.77
9861;DHT22;4969;52.304;4.968;2023-04-24T11:02:48;10.38;73.46
9861;DHT22;4969;52.304;4.968;2023-04-24T11:05:19;10.97;67.08
9861;DHT22;4969;52.304;4.968;2023-04-24T11:08:11;11.32;70.51
9861;DHT22;4969;52.304;4.968;2023-04-24T11:10:39;11.72;75.30
9861;DHT22;4969;52.304;4.968;2023-04-24T11:13:06;11.55;70.20
9861;DHT22;4969;52.304;4.968;2023-04-24T11:15:34;11.47;66.72
9861;DHT22;4969;52.304;4.968;2023-04-24T11:18:02;11.34;68.07
9861;DHT22;4969;52.304;4.968;2023-04-24T11:20:28;11.48;67.25
9861;DHT22;4969;52.304;4.968;2023-04-24T11:22:58;11.47;68.47
9861;DHT22;4969;52.304;4.968;2023-04-24T11:25:30;12.12;68.21
9861;DHT22;4969;52.304;4.968;2023-04-24T11:28:04;11.51;73.00
9861;DHT22;4969;52.304;4.968;2023-04-24T11:30:32;11.17;70.29
9861;DHT22;4969;52.304;4.968;2023-04-24T11:33:03;12.31;74.72
9861;DHT22;4969;52.304;4.968;2023-04-24T11:35:35;12.16;65.46
9861;DHT22;4969;52.304;4.968;2023-04-24T11:38:02;12.33;64.40
9861;DHT22;4969;52.304;4.968;2023-04-24T11:40:30;12.20;71.85
9861;DHT22;4969;52.304;4.968;2023-04-24T11:42:59;11.30;63.65
9861;DHT22;4969;52.304;4.968;2023-04-24T11:45:27;11.54;65.82
9861;DHT22;4969;52.304;4.968;2023-04-24T11:47:54;11.03;63.80
9861;DHT22;4969;52.304;4.968;2023-04-24T11:50:24;11.26;64.17
9861;DHT22;4969;52.304;4.968;2023-04-24T11:52:52;11.43;66.53
9861;DHT22;4969;52.304;4.968;2023-04-24T11:55:26;11.72;66.53
9861;DHT22;4969;52.304;4.968;2023-04-24T11:57:54;11.37;63.84
9861;DHT22;4969;52.304;4.968;2023-04-24T12:00:24;11.79;75.28
9861;DHT22;4969;52.304;4.968;2023-04-24T12:02:59;12.16;63.69
9861;DHT22;4969;52.304;4.968;2023-04-24T12:05:30;11.54;67.46
9861;DHT22;4969;52.304;4.968;2023-04-24T12:07:57;12.02;74.81
9861;DHT22;4969;52.304;4.968;2023-04-24T12:10:26;12.02;67.57
9861;DHT22;4969;52.304;4.968;2023-04-24T12:12:56;10.82;68.62
9861;DHT22;4969;52.304;4.968;2023-04-24T12:15:23;10.96;74.36
9861;DHT22;4969;52.304;4.968;2023-04-24T12:17:51;10.58;66.16
9861;DHT22;4969;52.304;4.968;2023-04-24T12:20:23;10.81;67.49
9861;DHT22;4969;52.304;4.968;2023-04-24T12:22:53;10.55;68.69
9861;DHT22;4969;52.304;4.968;2023-04-24T12:25:21;11.72;71.83
9861;DHT22;4969;52.304;4.968;2023-04-24T12:27:52;11.44;67.94
9861;DHT22;4969;52.304;4.968;2023-04-24T12:30:19;10.61;68.16
9861;DHT22;4969;52.304;4.968;2023-04-24T12:32:48;10.42;69.50
9861;DHT22;4969;52.304;4.968;2023-04-24T12:35:19;10.12;71.53
9861;DHT22;4969;52.304;4.968;2023-04-24T12:37:46;11.09;67.86
9861;DHT22;4969;52.304;4.968;2023-04-24T12:40:14;11.36;78.11
9861;DHT22;4969;52.304;4.968;2023-04-24T12:42:43;10.76;67.22
9861;DHT22;4969;52.304;4.968;2023-04-24T12:45:09;10.74;69.02
9861;DHT22;4969;52.304;4.968;2023-04-24T12:47:38;10.89;66.67
9861;DHT22;4969;52.304;4.968;2023-04-24T12:50:07;11.46;74.72
9861;DHT22;4969;52.304;4.968;2023-04-24T12:52:35;11.78;78.30
9861;DHT22;4969;52.304;4.968;2023-04-24T12:55:02;11.75;66.43
9861;DHT22;4969;52.304;4.968;2023-04-24T12:57:31;11.50;65.69
9861;DHT22;4969;52.304;4.968;2023-04-24T12:59:58;11.43;70.49
9861;DHT22;4969;52.304;4.968;2023-04-24T13:02:26;11.37;64.95
9861;DHT22;4969;52.304;4.968;2023-04-24T13:04:54;11.46;68.90
9861;DHT22;4969;52.304;4.968;2023-04-24T13:07:21;11.52;65.69
9861;DHT22;4969;52.304;4.968;2023-04-24T13:09:48;11.69;70.75
9861;DHT22;4969;52.304;4.968;2023-04-24T13:12:15;11.47;63.09
9861;DHT22;4969;52.304;4.968;2023-04-24T13:14:43;11.27;70.00
9861;DHT22;4969;52.304;4.968;2023-04-24T13:17:10;11.40;64.54
9861;DHT22;4969;52.304;4.968;2023-04-24T13:19:38;11.55;71.01
9861;DHT22;4969;52.304;4.968;2023-04-24T13:22:05;11.51;63.45
9861;DHT22;4969;52.304;4.968;2023-04-24T13:24:33;11.89;61.11
9861;DHT22;4969;52.304;4.968;2023-04-24T13:26:59;11.78;61.54
9861;DHT22;4969;52.304;4.968;2023-04-24T13:29:26;12.48;64.83
9861;DHT22;4969;52.304;4.968;2023-04-24T13:31:55;12.14;60.35
9861;DHT22;4969;52.304;4.968;2023-04-24T13:34:22;12.03;61.07
9861;DHT22;4969;52.304;4.968;2023-04-24T13:36:49;11.75;61.58
9861;DHT22;4969;52.304;4.968;2023-04-24T13:39:16;11.16;65.14
9861;DHT22;4969;52.304;4.968;2023-04-24T13:41:43;10.60;65.38
9861;DHT22;4969;52.304;4.968;2023-04-24T13:44:10;10.88;68.05
9861;DHT22;4969;52.304;4.968;2023-04-24T13:46:37;10.85;65.31
9861;DHT22;4969;52.304;4.968;2023-04-24T13:49:05;10.51;68.29
9861;DHT22;4969;52.304;4.968;2023-04-24T13:51:32;10.79;69.22
9861;DHT22;4969;52.304;4.968;2023-04-24T13:53:59;11.28;65.90
9861;DHT22;4969;52.304;4.968;2023-04-24T13:56:26;11.30;66.73
9861;DHT22;4969;52.304;4.968;2023-04-24T13:58:52;11.52;65.44
9861;DHT22;4969;52.304;4.968;2023-04-24T14:01:20;11.64;71.22
9861;DHT22;4969;52.304;4.968;2023-04-24T14:03:49;11.52;65.18
9861;DHT22;4969;52.304;4.968;2023-04-24T14:06:18;10.71;63.54
9861;DHT22;4969;52.304;4.968;2023-04-24T14:08:44;10.71;65.37
9861;DHT22;4969;52.304;4.968;2023-04-24T14:11:11;11.74;74.55
9861;DHT22;4969;52.304;4.968;2023-04-24T14:13:38;12.21;59.66
9861;DHT22;4969;52.304;4.968;2023-04-24T14:16:05;11.61;59.40
9861;DHT22;4969;52.304;4.968;2023-04-24T14:18:32;12.00;61.36
9861;DHT22;4969;52.304;4.968;2023-04-24T14:20:59;12.14;60.01
9861;DHT22;4969;52.304;4.968;2023-04-24T14:23:27;11.96;65.03
9861;DHT22;4969;52.304;4.968;2023-04-24T14:25:54;11.00;60.89
9861;DHT22;4969;52.304;4.968;2023-04-24T14:28:21;11.97;60.99
9861;DHT22;4969;52.304;4.968;2023-04-24T14:30:47;12.10;61.37
9861;DHT22;4969;52.304;4.968;2023-04-24T14:33:14;11.36;64.14
9861;DHT22;4969;52.304;4.968;2023-04-24T14:35:41;11.10;64.85
9861;DHT22;4969;52.304;4.968;2023-04-24T14:38:08;11.04;62.22
9861;DHT22;4969;52.304;4.968;2023-04-24T14:40:36;11.00;63.97
9861;DHT22;4969;52.304;4.968;2023-04-24T14:43:03;11.51;63.60
9861;DHT22;4969;52.304;4.968;2023-04-24T14:45:30;11.13;62.77
9861;DHT22;4969;52.304;4.968;2023-04-24T14:47:57;10.86;65.98
9861;DHT22;4969;52.304;4.968;2023-04-24T14:50:24;10.97;64.18
9861;DHT22;4969;52.304;4.968;2023-04-24T14:52:53;11.72;72.03
9861;DHT22;4969;52.304;4.968;2023-04-24T14:55:19;11.81;68.40
9861;DHT22;4969;52.304;4.968;2023-04-24T14:57:48;11.41;60.62
9861;DHT22;4969;52.304;4.968;2023-04-24T15:00:15;11.41;68.40
9861;DHT22;4969;52.304;4.968;2023-04-24T15:02:42;12.03;63.81
9861;DHT22;4969;52.304;4.968;2023-04-24T15:05:10;11.78;62.05
9861;DHT22;4969;52.304;4.968;2023-04-24T15:07:37;11.43;61.94
9861;DHT22;4969;52.304;4.968;2023-04-24T15:10:04;11.38;61.97
9861;DHT22;4969;52.304;4.968;2023-04-24T15:12:31;11.55;67.42
9861;DHT22;4969;52.304;4.968;2023-04-24T15:14:59;11.36;59.91
9861;DHT22;4969;52.304;4.968;2023-04-24T15:17:26;11.54;61.21
9861;DHT22;4969;52.304;4.968;2023-04-24T15:19:53;11.83;63.19
9861;DHT22;4969;52.304;4.968;2023-04-24T15:22:19;11.74;66.40
9861;DHT22;4969;52.304;4.968;2023-04-24T15:24:46;11.85;60.50
9861;DHT22;4969;52.304;4.968;2023-04-24T15:27:12;11.95;65.21
9861;DHT22;4969;52.304;4.968;2023-04-24T15:29:39;11.32;63.60
9861;DHT22;4969;52.304;4.968;2023-04-24T15:32:07;11.17;62.62
9861;DHT22;4969;52.304;4.968;2023-04-24T15:34:34;10.79;65.54
9861;DHT22;4969;52.304;4.968;2023-04-24T15:37:00;10.61;63.52
9861;DHT22;4969;52.304;4.968;2023-04-24T15:39:27;10.91;63.64
9861;DHT22;4969;52.304;4.968;2023-04-24T15:41:53;11.65;61.60
9861;DHT22;4969;52.304;4.968;2023-04-24T15:44:20;11.87;73.89
9861;DHT22;4969;52.304;4.968;2023-04-24T15:46:47;11.50;58.80
9861;DHT22;4969;52.304;4.968;2023-04-24T15:49:15;11.24;64.62
9861;DHT22;4969;52.304;4.968;2023-04-24T15:51:42;11.41;66.38
9861;DHT22;4969;52.304;4.968;2023-04-24T15:54:09;11.72;64.94
9861;DHT22;4969;52.304;4.968;2023-04-24T15:56:35;11.23;66.01
9861;DHT22;4969;52.304;4.968;2023-04-24T15:59:02;11.52;63.03
9861;DHT22;4969;52.304;4.968;2023-04-24T16:01:29;12.00;61.54
9861;DHT22;4969;52.304;4.968;2023-04-24T16:03:56;11.55;61.86
9861;DHT22;4969;52.304;4.968;2023-04-24T16:06:24;11.23;61.41